Time;durP1;ratioP1;P1;durP2;ratioP2;P2;SDS_P1;SDS_P2;PMS_P1;PMS_P2;Temp;Humidity;BMP_temperature;BMP_pressure;BME280_temperature;BME280_humidity;BME280_pressure;Samples;Min_cycle;Max_cycle;Signal;HPM_P1;HPM_P2
2022/12/07 00:01:24;;;;;;;25.65;17.83;;;;;;;1.98;100.00;101808.75;5093547;28;20036;-84
2022/12/07 00:03:52;;;;;;;25.45;16.77;;;;;;;2.10;100.00;101840.88;5093576;28;20459;-84
2022/12/07 00:06:18;;;;;;;21.25;16.35;;;;;;;1.96;100.00;101821.47;5093643;28;20115;-85
2022/12/07 00:08:44;;;;;;;25.20;16.60;;;;;;;1.99;100.00;101839.31;5093610;28;20028;-85
2022/12/07 00:11:12;;;;;;;22.48;16.02;;;;;;;1.98;100.00;101837.63;5075371;28;20028;-87
2022/12/07 00:13:38;;;;;;;21.88;15.88;;;;;;;1.60;100.00;101782.00;5093093;28;20024;-83
2022/12/07 00:16:14;;;;;;;23.17;16.27;;;;;;;1.85;100.00;101822.47;5093192;28;20107;-86
2022/12/07 00:18:40;;;;;;;22.25;16.08;;;;;;;1.92;100.00;101832.59;5093272;28;20464;-86
2022/12/07 00:21:20;;;;;;;24.55;16.95;;;;;;;1.76;100.00;101803.03;5093279;28;20030;-84
2022/12/07 00:23:47;;;;;;;25.15;17.83;;;;;;;1.96;100.00;101829.13;5093280;28;20032;-88
2022/12/07 00:26:19;;;;;;;26.17;16.65;;;;;;;1.96;100.00;101821.47;5092736;28;20055;-86
2022/12/07 00:28:49;;;;;;;26.38;17.75;;;;;;;1.93;100.00;101828.31;5093147;28;20031;-88
2022/12/07 00:31:16;;;;;;;23.75;16.95;;;;;;;1.90;100.00;101820.72;5093154;28;20024;-85
2022/12/07 00:33:42;;;;;;;22.90;15.82;;;;;;;1.73;100.00;101801.38;5093225;28;20542;-87
2022/12/07 00:36:14;;;;;;;22.40;16.95;;;;;;;1.83;100.00;101819.09;5093018;28;20024;-86
2022/12/07 00:38:40;;;;;;;23.85;16.77;;;;;;;1.64;100.00;101788.75;5096382;28;20028;-85
2022/12/07 00:41:17;;;;;;;27.05;17.17;;;;;;;1.68;100.00;101792.13;5097277;28;20370;-87
2022/12/07 00:43:43;;;;;;;22.85;16.48;;;;;;;1.84;100.00;101819.06;5097193;28;20050;-87
2022/12/07 00:46:09;;;;;;;24.48;17.08;;;;;;;1.85;100.00;101817.38;5097057;28;20012;-88
2022/12/07 00:48:34;;;;;;;23.83;17.00;;;;;;;1.81;100.00;101805.56;5097086;28;20035;-88
2022/12/07 00:51:00;;;;;;;25.77;17.67;;;;;;;1.55;100.00;101777.81;5097009;28;20081;-87
2022/12/07 00:53:27;;;;;;;21.85;16.83;;;;;;;1.56;100.00;101780.34;5096833;28;20375;-86
2022/12/07 00:55:56;;;;;;;22.80;16.92;;;;;;;1.82;100.00;101823.34;5097009;28;20024;-87
2022/12/07 00:58:21;;;;;;;23.83;17.65;;;;;;;1.85;100.00;101823.31;5097125;28;20024;-88
2022/12/07 01:00:47;;;;;;;21.65;15.77;;;;;;;1.75;100.00;101805.59;5078887;28;20038;-83
2022/12/07 01:03:13;;;;;;;22.23;16.48;;;;;;;1.26;100.00;101728.06;5096871;28;20027;-88
2022/12/07 01:05:40;;;;;;;23.65;16.67;;;;;;;1.75;100.00;101811.53;5096934;28;20111;-86
2022/12/07 01:08:06;;;;;;;24.23;16.60;;;;;;;1.73;100.00;101805.63;5096615;28;20028;-85
2022/12/07 01:10:31;;;;;;;24.60;15.43;;;;;;;1.60;100.00;101797.28;5097082;28;20424;-86
2022/12/07 01:13:00;;;;;;;21.45;15.50;;;;;;;1.41;100.00;101773.72;5087128;22;20052;-87
2022/12/07 01:15:26;;;;;;;22.08;15.23;;;;;;;1.65;100.00;101808.25;5076071;28;20464;-86
2022/12/07 01:17:51;;;;;;;27.77;16.52;;;;;;;1.38;100.00;101750.84;5076392;28;20074;-86
2022/12/07 01:20:16;;;;;;;23.30;15.93;;;;;;;1.74;100.00;101802.22;5076358;28;20492;-87
2022/12/07 01:22:43;;;;;;;26.00;17.52;;;;;;;1.91;100.00;101830.06;5076207;28;20040;-88
2022/12/07 01:25:10;;;;;;;26.02;17.83;;;;;;;2.06;100.00;101814.56;5076002;28;20025;-88
2022/12/07 01:27:36;;;;;;;28.23;18.52;;;;;;;2.19;100.00;101822.94;5076179;28;20119;-88
2022/12/07 01:30:04;;;;;;;29.15;18.40;;;;;;;1.93;100.00;101754.47;5057755;28;20039;-87
2022/12/07 01:32:29;;;;;;;25.10;17.95;;;;;;;1.98;100.00;101748.47;5076071;28;20024;-86
2022/12/07 01:34:55;;;;;;;24.63;17.45;;;;;;;2.44;100.00;101801.34;5076184;28;20082;-85
2022/12/07 01:37:21;;;;;;;28.90;16.92;;;;;;;2.47;100.00;101811.53;5075839;28;20056;-87
2022/12/07 01:39:48;;;;;;;26.30;16.40;;;;;;;2.39;100.00;101795.50;5075859;28;20028;-87
2022/12/07 01:42:14;;;;;;;22.45;15.95;;;;;;;2.19;100.00;101757.53;5075987;28;20024;-83
2022/12/07 01:45:16;;;;;;;24.90;15.35;;;;;;;2.59;100.00;101811.34;5075447;28;20021;-88
2022/12/07 01:47:46;;;;;;;22.35;14.93;;;;;;;2.57;100.00;101804.59;5075594;28;20115;-87
2022/12/07 01:50:13;;;;;;;21.95;15.73;;;;;;;2.49;100.00;101791.94;5075471;28;20021;-87
2022/12/07 01:52:41;;;;;;;20.35;13.50;;;;;;;2.64;100.00;101807.88;5075958;28;20468;-87
2022/12/07 01:55:10;;;;;;;22.75;14.10;;;;;;;2.59;100.00;101802.84;5075892;28;20036;-83
2022/12/07 01:57:45;;;;;;;19.98;13.93;;;;;;;2.45;100.00;101790.28;5075688;28;20028;-87
2022/12/07 02:00:11;;;;;;;20.80;13.63;;;;;;;2.54;100.00;101807.16;5075571;28;20111;-85
2022/12/07 02:02:43;;;;;;;19.92;12.45;;;;;;;2.44;100.00;101805.59;5075736;28;20036;-87
2022/12/07 02:05:08;;;;;;;20.90;12.65;;;;;;;2.18;100.00;101788.13;5075424;28;20464;-86
2022/12/07 02:07:37;;;;;;;20.83;12.48;;;;;;;2.08;100.00;101787.41;5075527;28;20043;-79
2022/12/07 02:10:24;;;;;;;17.58;12.18;;;;;;;2.19;100.00;101812.75;5075650;28;20025;-79
2022/12/07 02:12:57;;;;;;;23.15;12.40;;;;;;;2.09;100.00;101798.44;5075246;28;20045;-81
2022/12/07 02:15:42;;;;;;;20.92;12.60;;;;;;;2.03;100.00;101806.13;5075033;28;20051;-81
2022/12/07 02:18:20;;;;;;;21.33;12.18;;;;;;;1.97;100.00;101805.38;5057293;28;20029;-87
2022/12/07 02:20:51;;;;;;;18.50;12.45;;;;;;;1.90;100.00;101805.44;5075402;28;20028;-81
2022/12/07 02:23:27;;;;;;;20.27;13.00;;;;;;;1.84;100.00;101805.50;5075460;28;20530;-86
2022/12/07 02:26:08;;;;;;;17.67;11.98;;;;;;;1.54;100.00;101760.84;5074946;28;20408;-80
2022/12/07 02:28:36;;;;;;;20.48;13.27;;;;;;;1.82;100.00;101808.06;5072359;22;20053;-80
2022/12/07 02:31:11;;;;;;;19.00;13.82;;;;;;;1.78;100.00;101810.69;5035009;28;20100;-81
2022/12/07 02:33:54;;;;;;;18.38;12.50;;;;;;;1.71;100.00;101804.81;5034818;28;20469;-85
2022/12/07 02:36:26;;;;;;;22.58;12.93;;;;;;;1.66;100.00;101811.63;5034794;28;20389;-82
2022/12/07 02:39:06;;;;;;;20.67;13.20;;;;;;;1.22;100.00;101751.84;5035233;28;20048;-80
2022/12/07 02:41:45;;;;;;;20.13;13.48;;;;;;;1.49;100.00;101796.56;5034914;28;20030;-81
2022/12/07 02:44:16;;;;;;;21.67;14.30;;;;;;;1.53;100.00;101800.75;5034949;28;20044;-87
2022/12/07 02:47:01;;;;;;;22.40;13.52;;;;;;;1.43;100.00;101789.81;5033335;28;20492;-85
2022/12/07 02:49:28;;;;;;;21.25;13.85;;;;;;;1.46;100.00;101799.09;5034746;28;20017;-87
2022/12/07 02:51:54;;;;;;;19.90;14.82;;;;;;;1.33;100.00;101779.72;5034760;28;20037;-86
2022/12/07 02:54:20;;;;;;;19.20;13.90;;;;;;;1.30;100.00;101780.63;5033293;28;20021;-84
2022/12/07 02:56:51;;;;;;;19.35;13.75;;;;;;;1.36;100.00;101795.81;5034572;28;20040;-80
2022/12/07 02:59:38;;;;;;;19.58;12.90;;;;;;;1.37;100.00;101807.66;5034613;28;20021;-80
2022/12/07 03:02:12;;;;;;;23.20;15.23;;;;;;;1.43;100.00;101804.22;5033993;28;20025;-81
2022/12/07 03:04:43;;;;;;;20.30;14.95;;;;;;;1.37;100.00;101792.41;5034485;28;20092;-87
2022/12/07 03:07:22;;;;;;;25.23;15.30;;;;;;;1.57;100.00;101807.47;5034467;28;20079;-88
2022/12/07 03:10:16;;;;;;;21.65;15.27;;;;;;;1.64;100.00;101800.63;5034176;28;20466;-85
2022/12/07 03:13:06;;;;;;;22.73;14.38;;;;;;;1.40;100.00;101766.94;5034679;28;20029;-88
2022/12/07 03:15:46;;;;;;;24.88;14.43;;;;;;;1.29;100.00;101740.75;5034098;28;20041;-87
2022/12/07 03:18:14;;;;;;;22.08;14.95;;;;;;;1.29;100.00;101743.31;5034129;28;20029;-85
2022/12/07 03:20:44;;;;;;;22.00;14.68;;;;;;;1.76;100.00;101803.03;5032346;28;20456;-88
2022/12/07 03:23:10;;;;;;;23.08;14.48;;;;;;;1.79;100.00;101813.22;5034277;28;20026;-87
2022/12/07 03:25:40;;;;;;;20.88;14.80;;;;;;;1.85;100.00;101819.91;5034095;28;20543;-87
2022/12/07 03:28:08;;;;;;;20.50;14.93;;;;;;;1.90;100.00;101808.84;5033953;28;20108;-87
2022/12/07 03:30:52;;;;;;;22.80;14.70;;;;;;;1.95;100.00;101801.97;5032676;28;20037;-87
2022/12/07 03:33:28;;;;;;;21.30;15.05;;;;;;;1.90;100.00;101772.34;5034148;28;20095;-87
2022/12/07 03:36:06;;;;;;;21.63;14.38;;;;;;;1.94;100.00;101764.63;5036223;28;20033;-87
2022/12/07 03:38:40;;;;;;;20.80;14.63;;;;;;;2.16;100.00;101792.38;5032839;28;20108;-85
2022/12/07 03:41:16;;;;;;;22.17;14.45;;;;;;;1.97;100.00;101751.03;5033863;28;20380;-86
2022/12/07 03:43:42;;;;;;;23.67;15.38;;;;;;;2.25;100.00;101785.47;5033506;28;20034;-88
2022/12/07 03:46:22;;;;;;;19.67;14.00;;;;;;;2.31;100.00;101792.19;5032381;28;20037;-87
2022/12/07 03:49:18;;;;;;;23.30;14.38;;;;;;;2.34;100.00;101779.41;5033758;28;20028;-87
2022/12/07 03:51:51;;;;;;;21.90;13.50;;;;;;;2.32;100.00;101770.94;4992031;28;20046;-88
2022/12/07 03:54:29;;;;;;;19.08;13.45;;;;;;;1.57;100.00;101649.66;4992058;28;20030;-88
2022/12/07 03:56:57;;;;;;;18.05;11.70;;;;;;;2.42;100.00;101781.84;4991945;28;20403;-87
2022/12/07 03:59:23;;;;;;;20.27;12.32;;;;;;;2.21;100.00;101750.69;4992169;28;20034;-88
2022/12/07 04:01:54;;;;;;;16.25;11.95;;;;;;;2.44;100.00;101787.75;4991972;28;20045;-87
2022/12/07 04:04:20;;;;;;;17.65;11.10;;;;;;;2.43;100.00;101786.06;4991977;28;20390;-88
2022/12/07 04:06:45;;;;;;;15.73;11.30;;;;;;;2.19;100.00;101761.78;4991652;28;20031;-88
2022/12/07 04:09:11;;;;;;;17.88;12.55;;;;;;;2.40;100.00;101788.69;4975701;28;20126;-87
2022/12/07 04:11:36;;;;;;;19.67;11.57;;;;;;;2.29;100.00;101784.56;4991444;28;20113;-87
2022/12/07 04:14:20;;;;;;;18.65;10.73;;;;;;;2.16;100.00;101757.53;4991757;28;20046;-88
2022/12/07 04:16:49;;;;;;;15.65;10.20;;;;;;;2.30;100.00;101787.97;4991560;28;20088;-84
2022/12/07 04:19:15;;;;;;;17.80;10.32;;;;;;;2.06;100.00;101734.75;4991676;28;20031;-86
2022/12/07 04:21:41;;;;;;;16.77;10.23;;;;;;;2.23;100.00;101759.16;4991675;28;20027;-87
2022/12/07 04:24:06;;;;;;;16.08;10.65;;;;;;;2.42;100.00;101784.41;4991224;28;20037;-88
2022/12/07 04:26:32;;;;;;;19.55;11.38;;;;;;;2.43;100.00;101794.56;4991838;28;20046;-87
2022/12/07 04:28:57;;;;;;;18.42;11.43;;;;;;;1.51;100.00;101638.72;5027455;28;20042;-86
2022/12/07 04:31:22;;;;;;;20.15;11.80;;;;;;;2.45;100.00;101780.09;5033273;28;20029;-87
2022/12/07 04:33:48;;;;;;;18.00;10.75;;;;;;;2.28;100.00;101757.41;5032766;28;20018;-86
2022/12/07 04:36:13;;;;;;;17.50;9.85;;;;;;;2.37;100.00;101768.34;5032666;28;20021;-87
2022/12/07 04:38:38;;;;;;;14.00;9.48;;;;;;;2.18;100.00;101734.63;5032756;28;20474;-87
2022/12/07 04:41:08;;;;;;;18.83;10.10;;;;;;;2.42;100.00;101782.69;5033066;28;20041;-87
2022/12/07 04:43:34;;;;;;;14.63;9.48;;;;;;;2.25;100.00;101757.41;5032952;28;20036;-87
2022/12/07 04:45:59;;;;;;;15.68;9.50;;;;;;;2.29;100.00;101776.94;5031532;28;20029;-85
2022/12/07 04:48:25;;;;;;;14.63;8.98;;;;;;;1.90;100.00;101714.59;5032840;28;20032;-86
2022/12/07 04:50:50;;;;;;;14.85;8.77;;;;;;;2.18;100.00;101771.13;5032816;28;20025;-85
2022/12/07 04:53:15;;;;;;;14.23;9.45;;;;;;;2.09;100.00;101771.25;5032974;28;20423;-86
2022/12/07 04:55:41;;;;;;;15.80;8.75;;;;;;;1.91;100.00;101758.75;5031430;28;20030;-88
2022/12/07 04:58:06;;;;;;;14.90;8.75;;;;;;;1.93;100.00;101773.13;5033073;28;20428;-87
2022/12/07 05:00:31;;;;;;;14.50;8.02;;;;;;;1.73;100.00;101747.91;5032857;28;20033;-87
2022/12/07 05:02:57;;;;;;;15.35;7.88;;;;;;;1.81;100.00;101762.25;5032602;28;20057;-86
2022/12/07 05:05:22;;;;;;;16.20;8.60;;;;;;;1.44;100.00;101707.50;5030799;28;20136;-83
2022/12/07 05:07:47;;;;;;;14.20;8.35;;;;;;;1.72;100.00;101763.19;5032492;28;20167;-86
2022/12/07 05:10:13;;;;;;;15.50;8.32;;;;;;;1.55;100.00;101744.72;5031774;28;20040;-86
2022/12/07 05:12:38;;;;;;;15.30;9.02;;;;;;;1.55;100.00;101747.25;5032818;28;20068;-87
2022/12/07 05:15:04;;;;;;;15.55;8.75;;;;;;;1.59;100.00;101759.97;5032706;28;20019;-87
2022/12/07 05:17:29;;;;;;;15.18;8.65;;;;;;;1.49;100.00;101748.19;5032657;28;20037;-88
2022/12/07 05:19:55;;;;;;;15.43;8.95;;;;;;;1.58;100.00;101767.63;5031159;28;20497;-89
2022/12/07 05:22:21;;;;;;;14.82;8.98;;;;;;;1.62;100.00;101774.34;5032336;28;20032;-86
2022/12/07 05:24:46;;;;;;;19.90;10.20;;;;;;;1.57;100.00;101746.38;5035583;28;20033;-88
2022/12/07 05:27:14;;;;;;;17.50;9.90;;;;;;;1.79;100.00;101771.63;5036238;28;20021;-89
2022/12/07 05:29:39;;;;;;;17.05;10.65;;;;;;;1.83;100.00;101771.56;5035234;28;20049;-87
2022/12/07 05:32:04;;;;;;;16.85;9.48;;;;;;;1.75;100.00;101770.78;5035067;28;20048;-87
2022/12/07 05:34:30;;;;;;;14.70;9.10;;;;;;;1.63;100.00;101763.31;5033265;28;20060;-86
2022/12/07 05:36:55;;;;;;;16.00;9.10;;;;;;;1.42;100.00;101741.47;5034903;28;20392;-83
2022/12/07 05:39:20;;;;;;;14.40;10.02;;;;;;;1.60;100.00;101771.81;5035039;28;20032;-84
2022/12/07 05:44:30;;;;;;;11.82;8.38;;;;;;;1.31;100.00;101739.03;5035104;28;20076;-86
2022/12/07 05:46:55;;;;;;;16.70;8.18;;;;;;;1.48;100.00;101771.13;5034816;28;20049;-87
2022/12/07 05:49:20;;;;;;;13.93;8.35;;;;;;;1.33;100.00;101749.19;5034607;28;20026;-85
2022/12/07 05:51:45;;;;;;;14.75;8.38;;;;;;;1.25;100.00;101750.97;5034801;28;20100;-86
2022/12/07 05:54:11;;;;;;;15.15;8.63;;;;;;;1.05;100.00;101730.81;5034827;28;20040;-88
2022/12/07 05:56:37;;;;;;;12.98;8.40;;;;;;;0.95;100.00;101737.69;5034411;28;20040;-85
2022/12/07 06:01:53;;;;;;;14.25;8.27;;;;;;;0.93;100.00;101753.81;5035405;28;20408;-88
2022/12/07 06:04:20;;;;;;;13.93;7.97;;;;;;;0.70;100.00;101724.34;5035464;28;20436;-86
2022/12/07 06:06:45;;;;;;;15.30;8.77;;;;;;;0.83;100.00;101753.03;5034868;28;20418;-88
2022/12/07 06:09:12;;;;;;;11.88;7.45;;;;;;;0.57;100.00;101720.19;5034505;28;20109;-88
2022/12/07 06:14:21;;;;;;;15.18;8.50;;;;;;;0.60;100.00;101757.47;5034776;28;20425;-88
2022/12/07 06:16:47;;;;;;;12.63;7.93;;;;;;;0.53;100.00;101757.50;5034134;28;20112;-88
2022/12/07 06:19:12;;;;;;;11.30;7.50;;;;;;;0.38;100.00;101747.41;5034384;28;20460;-88
2022/12/07 06:21:38;;;;;;;12.30;8.35;;;;;;;0.44;100.00;101766.88;5034314;28;20053;-88
2022/12/07 06:24:03;;;;;;;14.63;8.88;;;;;;;0.22;100.00;101728.91;5034145;28;20061;-89
2022/12/07 06:26:29;;;;;;;12.23;8.68;;;;;;;-0.64;100.00;101583.81;5034417;28;20018;-89
2022/12/07 06:28:54;;;;;;;16.70;9.07;;;;;;;0.58;100.00;101765.06;4994963;28;1133995;-89
2022/12/07 06:31:23;;;;;;;18.38;10.57;;;;;;;0.73;100.00;101770.06;5034975;28;20037;-88
2022/12/07 06:33:48;;;;;;;17.23;11.27;;;;;;;0.81;100.00;101770.84;5034977;28;20029;-89
2022/12/07 06:36:13;;;;;;;16.70;11.45;;;;;;;0.79;100.00;101747.16;5033920;28;20033;-89
2022/12/07 06:38:39;;;;;;;14.93;10.75;;;;;;;0.95;100.00;101764.81;5034959;28;20527;-87
2022/12/07 06:41:06;;;;;;;17.58;11.32;;;;;;;0.71;100.00;101731.09;5034753;28;20112;-85
2022/12/07 06:43:31;;;;;;;16.85;11.60;;;;;;;0.56;100.00;101708.34;5034883;28;20060;-86
2022/12/07 06:45:57;;;;;;;16.85;11.30;;;;;;;0.91;100.00;101763.16;5034899;28;20514;-88
2022/12/07 06:48:22;;;;;;;16.85;11.98;;;;;;;0.76;100.00;101754.78;5034861;28;20056;-87
2022/12/07 06:50:48;;;;;;;22.30;11.85;;;;;;;0.80;100.00;101764.09;5034582;28;20061;-89
2022/12/07 06:53:13;;;;;;;21.63;12.80;;;;;;;0.80;100.00;101765.78;5034446;28;20053;-87
2022/12/07 06:55:39;;;;;;;18.63;12.45;;;;;;;0.77;100.00;101764.09;5034517;28;20389;-87
2022/12/07 06:58:04;;;;;;;22.50;12.40;;;;;;;0.80;100.00;101766.63;5034811;28;20052;-87
2022/12/07 07:00:34;;;;;;;20.25;13.75;;;;;;;0.67;100.00;101731.97;5034639;28;20052;-86
2022/12/07 07:03:00;;;;;;;23.65;14.52;;;;;;;0.68;100.00;101715.84;5035078;28;20108;-87
2022/12/07 07:05:27;;;;;;;23.63;15.15;;;;;;;1.03;100.00;101768.13;5034262;28;20105;-88
2022/12/07 07:08:01;;;;;;;22.60;13.98;;;;;;;1.07;100.00;101770.63;5034391;28;20052;-87
2022/12/07 07:10:26;;;;;;;29.55;14.68;;;;;;;1.13;100.00;101777.38;5034633;28;20025;-88
2022/12/07 07:12:51;;;;;;;23.98;14.48;;;;;;;1.22;100.00;101784.09;5034503;28;20492;-88
2022/12/07 07:15:17;;;;;;;23.45;14.27;;;;;;;0.94;100.00;101725.81;5034395;28;20030;-87
2022/12/07 07:17:42;;;;;;;26.45;15.25;;;;;;;1.28;100.00;101764.53;5034268;28;20033;-87
2022/12/07 07:20:08;;;;;;;22.95;14.07;;;;;;;1.14;100.00;101739.19;5034006;28;20033;-86
2022/12/07 07:22:34;;;;;;;23.90;15.30;;;;;;;1.26;100.00;101747.56;5034465;28;20025;-87
2022/12/07 07:24:59;;;;;;;28.55;16.00;;;;;;;1.25;100.00;101746.72;5034717;28;20021;-86
2022/12/07 07:27:24;;;;;;;26.77;15.18;;;;;;;1.46;100.00;101772.81;5035166;28;20500;-86
2022/12/07 07:29:50;;;;;;;22.88;15.02;;;;;;;0.56;100.00;101632.09;5034020;28;20050;-86
2022/12/07 07:32:15;;;;;;;28.35;15.57;;;;;;;1.37;100.00;101769.50;5034079;28;20049;-86
2022/12/07 07:34:41;;;;;;;26.15;16.70;;;;;;;1.52;100.00;101778.69;5033964;28;20022;-85
2022/12/07 07:37:06;;;;;;;25.80;16.48;;;;;;;1.58;100.00;101783.72;5033680;28;20036;-86
2022/12/07 07:39:31;;;;;;;30.27;16.35;;;;;;;1.39;100.00;101738.97;5034300;28;20060;-86
2022/12/07 07:41:57;;;;;;;26.40;16.25;;;;;;;1.64;100.00;101782.81;5033831;28;20079;-86
2022/12/07 07:44:22;;;;;;;27.20;15.80;;;;;;;1.62;100.00;101772.66;5033869;28;20033;-86
2022/12/07 07:46:53;;;;;;;26.33;16.55;;;;;;;1.66;100.00;101781.09;5029120;28;20036;-82
2022/12/07 07:49:18;;;;;;;25.95;16.55;;;;;;;1.65;100.00;101779.41;5027095;28;20422;-86
2022/12/07 07:51:44;;;;;;;28.05;15.25;;;;;;;1.60;100.00;101776.06;5033689;28;20114;-85
2022/12/07 07:54:09;;;;;;;26.85;15.52;;;;;;;1.53;100.00;101775.28;5033593;28;20025;-83
2022/12/07 07:56:34;;;;;;;23.08;14.18;;;;;;;1.39;100.00;101767.81;5033280;28;20377;-87
2022/12/07 07:59:00;;;;;;;23.02;13.70;;;;;;;1.04;100.00;101711.31;5033281;28;20032;-84
2022/12/07 08:01:25;;;;;;;22.40;13.93;;;;;;;1.30;100.00;101755.16;5033613;28;20025;-87
2022/12/07 08:03:50;;;;;;;26.88;14.45;;;;;;;1.35;100.00;101760.19;5033363;28;20079;-86
2022/12/07 08:06:16;;;;;;;24.35;15.35;;;;;;;1.28;100.00;101743.28;5052897;22;20130;-87
2022/12/07 08:08:42;;;;;;;25.30;16.85;;;;;;;1.38;100.00;101742.38;5073235;28;20051;-86
2022/12/07 08:11:08;;;;;;;23.05;15.82;;;;;;;1.66;100.00;101781.91;5073303;28;20096;-86
2022/12/07 08:13:34;;;;;;;25.00;16.15;;;;;;;1.69;100.00;101779.38;5073245;28;20020;-84
2022/12/07 08:16:10;;;;;;;27.10;15.63;;;;;;;1.57;100.00;101758.28;5073222;28;20078;-85
2022/12/07 08:18:37;;;;;;;21.17;14.80;;;;;;;1.84;100.00;101790.22;5073086;28;20024;-85
2022/12/07 08:21:03;;;;;;;25.67;16.40;;;;;;;1.87;100.00;101762.16;5072914;28;20460;-85
2022/12/07 08:23:30;;;;;;;28.00;15.23;;;;;;;1.87;100.00;101740.13;5073044;28;20526;-86
2022/12/07 08:26:00;;;;;;;27.88;16.23;;;;;;;1.56;100.00;101665.78;5073419;28;20090;-86
2022/12/07 08:28:25;;;;;;;24.13;14.82;;;;;;;2.20;100.00;101745.63;5073314;28;20028;-86
2022/12/07 08:30:51;;;;;;;22.58;14.98;;;;;;;2.57;100.00;101784.19;5073260;28;20028;-87
2022/12/07 08:33:16;;;;;;;23.27;13.32;;;;;;;2.64;100.00;101793.41;5073116;28;20028;-83
2022/12/07 08:35:41;;;;;;;21.25;12.40;;;;;;;2.58;100.00;101778.22;5070269;28;20111;-80
2022/12/07 08:38:07;;;;;;;18.73;11.40;;;;;;;2.67;100.00;101800.19;5069644;28;20036;-87
2022/12/07 08:40:32;;;;;;;20.48;10.57;;;;;;;2.66;100.00;101801.91;5073036;28;20082;-86
2022/12/07 08:42:57;;;;;;;18.02;10.50;;;;;;;2.63;100.00;101799.38;5072955;28;20038;-88
2022/12/07 08:45:23;;;;;;;16.90;9.90;;;;;;;2.26;100.00;101745.53;5072882;28;20047;-85
2022/12/07 08:47:53;;;;;;;18.25;9.93;;;;;;;2.56;100.00;101792.72;5072848;28;20028;-83
2022/12/07 08:50:20;;;;;;;13.70;9.50;;;;;;;2.56;100.00;101801.19;5072606;28;20024;-84
2022/12/07 08:52:50;;;;;;;14.85;8.77;;;;;;;2.55;100.00;101791.84;5072332;28;20059;-84
2022/12/07 08:55:16;;;;;;;17.23;9.17;;;;;;;2.51;100.00;101790.22;5073063;28;20021;-83
2022/12/07 08:57:42;;;;;;;15.07;8.18;;;;;;;2.46;100.00;101788.56;5072901;28;20301;-87
2022/12/07 09:00:08;;;;;;;16.08;9.05;;;;;;;2.18;100.00;101758.41;5076492;28;20021;-89
2022/12/07 09:02:34;;;;;;;18.17;8.32;;;;;;;2.26;100.00;101778.66;5076750;28;20040;-86
2022/12/07 09:04:59;;;;;;;14.43;7.95;;;;;;;2.12;100.00;101760.16;5076283;28;20024;-84
2022/12/07 09:07:25;;;;;;;15.38;8.20;;;;;;;2.26;100.00;101788.84;5076010;28;20048;-85
2022/12/07 09:09:50;;;;;;;14.07;7.90;;;;;;;1.99;100.00;101746.75;5076383;28;20059;-85
2022/12/07 09:12:16;;;;;;;18.95;9.60;;;;;;;2.22;100.00;101785.50;5076556;28;20033;-84
2022/12/07 09:14:41;;;;;;;16.73;8.15;;;;;;;2.17;100.00;101781.34;5076447;28;20056;-84
2022/12/07 09:17:12;;;;;;;17.13;8.40;;;;;;;2.21;100.00;101786.38;5076417;28;20115;-83
2022/12/07 09:19:37;;;;;;;18.45;8.43;;;;;;;2.25;100.00;101787.16;5076103;28;20046;-84
2022/12/07 09:22:04;;;;;;;18.60;9.48;;;;;;;2.21;100.00;101772.78;5075994;28;20029;-84
2022/12/07 09:24:30;;;;;;;18.52;10.38;;;;;;;2.25;100.00;101775.25;5076268;28;20486;-83
2022/12/07 09:26:56;;;;;;;21.13;9.35;;;;;;;2.42;100.00;101789.50;5076346;28;20108;-84
2022/12/07 09:29:22;;;;;;;19.75;9.32;;;;;;;2.22;100.00;101749.84;5068264;22;20057;-82
2022/12/07 09:31:47;;;;;;;19.50;9.00;;;;;;;2.26;100.00;101751.50;5058411;28;20059;-84
2022/12/07 09:34:12;;;;;;;14.90;8.65;;;;;;;2.55;100.00;101794.38;5076056;28;20533;-83
2022/12/07 09:36:38;;;;;;;18.30;9.68;;;;;;;2.62;100.00;101791.75;5075902;28;20032;-83
2022/12/07 09:39:04;;;;;;;16.00;9.50;;;;;;;2.67;100.00;101790.00;5075843;28;20027;-83
2022/12/07 09:41:32;;;;;;;17.10;9.98;;;;;;;2.67;100.00;101790.00;5057366;28;20177;-84
2022/12/07 09:44:07;;;;;;;16.58;9.05;;;;;;;2.66;100.00;101791.72;5076128;28;20020;-85
2022/12/07 09:46:39;;;;;;;15.65;8.80;;;;;;;2.44;100.00;101757.16;5075984;28;20028;-84
2022/12/07 09:49:09;;;;;;;17.77;9.57;;;;;;;2.64;100.00;101788.31;5075809;28;20012;-85
2022/12/07 09:51:35;;;;;;;18.15;10.00;;;;;;;2.50;100.00;101762.19;5075888;28;20086;-85
2022/12/07 09:54:01;;;;;;;19.77;9.75;;;;;;;2.50;100.00;101757.09;5075505;28;20111;-83
2022/12/07 09:56:30;;;;;;;17.65;9.45;;;;;;;2.55;100.00;101755.31;5075600;28;20475;-82
2022/12/07 09:59:01;;;;;;;19.42;9.23;;;;;;;2.82;100.00;101790.59;5075853;28;20468;-83
2022/12/07 10:01:30;;;;;;;15.20;8.48;;;;;;;2.90;100.00;101787.94;5075656;28;20044;-83
2022/12/07 10:04:02;;;;;;;19.33;9.27;;;;;;;3.00;100.00;101778.41;5075534;28;20388;-83
2022/12/07 10:06:27;;;;;;;14.68;8.38;;;;;;;3.10;100.00;101778.25;5075569;28;20099;-86
2022/12/07 10:08:52;;;;;;;13.55;7.32;;;;;;;3.15;100.00;101760.31;5075237;28;20032;-86
2022/12/07 10:11:18;;;;;;;15.07;7.88;;;;;;;3.37;100.00;101758.22;5075553;28;20070;-86
2022/12/07 10:13:48;;;;;;;15.02;7.75;;;;;;;3.40;100.00;101722.41;5075504;28;20057;-84
2022/12/07 10:16:27;;;;;;;15.87;7.13;;;;;;;3.95;100.00;101777.53;5075364;28;20032;-84
2022/12/07 10:18:53;;;;;;;14.82;7.00;;;;;;;4.18;100.00;101780.44;5075409;28;20283;-85
2022/12/07 10:21:25;;;;;;;10.00;6.35;;;;;;;4.23;100.00;101770.97;5075525;28;20031;-85
2022/12/07 10:24:04;;;;;;;15.93;6.78;;;;;;;4.20;100.00;101765.91;5074101;28;20035;-82
2022/12/07 10:26:36;;;;;;;15.90;6.10;;;;;;;4.17;100.00;101763.44;5055235;28;20025;-84
2022/12/07 10:29:16;;;;;;;10.70;5.63;;;;;;;4.07;100.00;101746.59;5054951;28;20036;-81
2022/12/07 10:31:42;;;;;;;15.73;6.53;;;;;;;4.14;100.00;101750.72;5055184;28;20179;-81
2022/12/07 10:34:29;;;;;;;12.02;6.13;;;;;;;3.78;100.00;101673.13;5055095;28;20469;-83
2022/12/07 10:37:06;;;;;;;16.13;7.07;;;;;;;4.38;100.00;101748.47;5055025;28;20025;-84
2022/12/07 10:39:50;;;;;;;12.55;6.82;;;;;;;4.50;100.00;101746.47;5053436;28;20428;-85
2022/12/07 10:42:19;;;;;;;18.23;6.55;;;;;;;4.61;100.00;101749.63;5054868;28;20021;-85
2022/12/07 10:44:44;;;;;;;12.48;6.43;;;;;;;4.49;100.00;101729.47;5054623;28;20039;-86
2022/12/07 10:47:28;;;;;;;16.95;6.60;;;;;;;4.52;100.00;101741.31;5054837;28;20124;-85
2022/12/07 10:50:09;;;;;;;14.45;6.13;;;;;;;4.48;100.00;101747.41;5054769;28;20124;-84
2022/12/07 10:52:47;;;;;;;14.63;6.47;;;;;;;4.12;100.00;101683.44;5054708;28;20376;-86
2022/12/07 10:55:53;;;;;;;16.77;6.50;;;;;;;4.48;100.00;101738.00;5054613;28;20025;-85
2022/12/07 10:58:39;;;;;;;14.50;6.55;;;;;;;4.56;100.00;101733.56;5054332;28;20025;-83
2022/12/07 11:01:16;;;;;;;13.63;6.40;;;;;;;4.58;100.00;101744.59;5054868;28;20115;-85
2022/12/07 11:03:53;;;;;;;14.25;6.22;;;;;;;4.57;100.00;101740.34;5054444;28;20036;-84
2022/12/07 11:06:31;;;;;;;12.43;6.10;;;;;;;4.62;100.00;101732.56;5054468;28;20377;-85
2022/12/07 11:09:15;;;;;;;10.40;5.88;;;;;;;4.53;100.00;101699.56;5054153;28;20025;-85
2022/12/07 11:11:49;;;;;;;14.38;7.55;;;;;;;4.71;100.00;101688.00;5054115;28;20025;-84
2022/12/07 11:14:40;;;;;;;17.15;6.68;;;;;;;5.12;100.00;101723.66;5054357;28;20033;-84
2022/12/07 11:17:32;;;;;;;12.35;6.63;;;;;;;5.27;100.00;101721.56;5054291;28;20036;-85
2022/12/07 11:20:16;;;;;;;14.65;6.75;;;;;;;5.12;100.00;101674.16;5054217;28;20036;-84
2022/12/07 11:22:59;;;;;;;18.90;6.88;;;;;;;5.42;100.00;101716.88;5053558;28;20025;-83
2022/12/07 11:25:52;;;;;;;11.82;6.05;;;;;;;4.86;100.00;101615.97;5054435;28;20392;-83
2022/12/07 11:28:39;;;;;;;11.93;5.78;;;;;;;5.51;100.00;101705.53;5055105;28;20061;-83
2022/12/07 11:31:28;;;;;;;12.10;6.25;;;;;;;5.53;100.00;101708.03;5056708;28;20053;-80